createdAt,value
2019-05-07T00:01:06.290Z,8.90
2019-05-07T00:03:33.326Z,8.70
2019-05-07T00:06:02.633Z,8.80
2019-05-07T00:08:29.601Z,8.80
2019-05-07T00:10:59.061Z,8.90
2019-05-07T00:13:26.489Z,9.00
2019-05-07T00:15:53.650Z,9.00
2019-05-07T00:18:22.949Z,9.10
2019-05-07T00:20:53.294Z,9.00
2019-05-07T00:23:23.184Z,8.90
2019-05-07T00:25:53.010Z,8.70
2019-05-07T00:28:23.067Z,8.50
2019-05-07T00:30:52.117Z,8.50
2019-05-07T00:33:22.711Z,8.40
2019-05-07T00:36:15.303Z,8.40
2019-05-07T00:38:45.737Z,8.40
2019-05-07T00:41:19.886Z,8.40
2019-05-07T00:43:48.813Z,8.50
2019-05-07T00:46:22.612Z,8.40
2019-05-07T00:48:49.885Z,8.40
2019-05-07T00:51:28.204Z,8.40
2019-05-07T00:53:56.421Z,8.50
2019-05-07T00:56:24.521Z,8.40
2019-05-07T00:58:52.889Z,8.40
2019-05-07T01:01:22.701Z,8.30
2019-05-07T01:03:53.206Z,8.30
2019-05-07T01:06:22.763Z,8.30
2019-05-07T01:08:52.536Z,8.20
2019-05-07T01:11:22.675Z,8.20
2019-05-07T01:13:52.012Z,8.20
2019-05-07T01:16:22.203Z,8.20
2019-05-07T01:18:49.998Z,8.20
2019-05-07T01:21:18.019Z,8.30
2019-05-07T01:23:46.054Z,8.40
2019-05-07T01:26:14.058Z,8.50
2019-05-07T01:29:02.472Z,8.50
2019-05-07T01:31:37.405Z,8.50
2019-05-07T01:34:28.709Z,8.50
2019-05-07T01:36:55.926Z,8.40
2019-05-07T01:39:23.273Z,8.30
2019-05-07T01:41:52.401Z,8.30
2019-05-07T01:44:19.053Z,8.30
2019-05-07T01:46:46.062Z,8.40
2019-05-07T01:49:12.973Z,8.30
2019-05-07T01:51:42.115Z,8.20
2019-05-07T01:54:08.810Z,8.20
2019-05-07T01:56:35.853Z,8.10
2019-05-07T01:59:02.974Z,8.20
2019-05-07T02:01:35.449Z,8.20
2019-05-07T02:04:27.431Z,8.20
2019-05-07T02:07:13.486Z,8.20
2019-05-07T02:09:45.520Z,8.00
2019-05-07T02:12:22.797Z,8.00
2019-05-07T02:14:52.915Z,8.10
2019-05-07T02:17:22.858Z,8.10
2019-05-07T02:19:52.754Z,8.10
2019-05-07T02:22:22.671Z,8.20
2019-05-07T02:24:52.401Z,8.20
2019-05-07T02:27:22.103Z,8.20
2019-05-07T02:29:52.408Z,8.20
2019-05-07T02:32:23.676Z,8.20
2019-05-07T02:34:54.180Z,8.20
2019-05-07T02:37:35.728Z,8.20
2019-05-07T02:40:09.578Z,8.10
2019-05-07T02:42:37.837Z,8.00
2019-05-07T02:45:25.805Z,8.00
2019-05-07T02:47:53.294Z,8.00
2019-05-07T02:50:27.486Z,8.00
2019-05-07T02:53:13.120Z,7.90
2019-05-07T02:55:44.411Z,7.80
2019-05-07T02:58:13.706Z,7.80
2019-05-07T03:00:43.468Z,7.70
2019-05-07T03:03:13.497Z,7.60
2019-05-07T03:05:42.837Z,7.50
2019-05-07T03:08:09.100Z,7.50
2019-05-07T03:10:36.599Z,7.50
2019-05-07T03:13:03.965Z,7.50
2019-05-07T03:15:33.454Z,7.50
2019-05-07T03:18:03.433Z,7.50
2019-05-07T03:20:43.033Z,7.40
2019-05-07T03:23:13.497Z,7.40
2019-05-07T03:26:13.994Z,7.30
2019-05-07T03:28:53.126Z,7.30
2019-05-07T03:31:27.447Z,7.20
2019-05-07T03:34:06.366Z,7.30
2019-05-07T03:36:39.724Z,7.40
2019-05-07T03:39:07.939Z,7.40
2019-05-07T03:41:36.512Z,7.40
2019-05-07T03:44:15.259Z,7.40
2019-05-07T03:46:54.445Z,7.40
2019-05-07T03:49:26.201Z,7.50
2019-05-07T03:51:54.919Z,7.50
2019-05-07T03:54:23.927Z,7.40
2019-05-07T03:56:53.020Z,7.40
2019-05-07T03:59:23.210Z,7.60
2019-05-07T04:01:53.654Z,7.80
2019-05-07T04:05:43.018Z,7.80
2019-05-07T04:08:13.250Z,7.70
2019-05-07T04:10:43.779Z,7.80
2019-05-07T04:13:13.258Z,7.90
2019-05-07T04:15:39.110Z,7.70
2019-05-07T04:18:06.790Z,7.80
2019-05-07T04:20:34.436Z,7.90
2019-05-07T04:23:04.260Z,7.80
2019-05-07T04:26:04.326Z,7.80
2019-05-07T04:28:55.449Z,8.00
2019-05-07T04:31:25.826Z,8.10
2019-05-07T04:33:56.165Z,8.00
2019-05-07T04:36:29.755Z,8.10
2019-05-07T04:39:02.675Z,8.00
2019-05-07T04:41:32.796Z,8.20
2019-05-07T04:44:03.402Z,8.30
2019-05-07T04:46:33.307Z,8.20
2019-05-07T04:49:03.741Z,8.30
2019-05-07T04:51:43.353Z,8.40
2019-05-07T04:54:13.251Z,8.30
2019-05-07T04:56:45.020Z,8.30
2019-05-07T04:59:14.341Z,8.40
2019-05-07T05:01:48.225Z,8.50
2019-05-07T05:04:25.590Z,8.60
2019-05-07T05:06:47.099Z,8.80
2019-05-07T05:09:15.764Z,8.80
2019-05-07T05:11:44.337Z,8.70
2019-05-07T05:14:13.605Z,8.80
2019-05-07T05:16:42.550Z,8.60
2019-05-07T05:19:09.859Z,8.70
2019-05-07T05:22:02.010Z,8.80
2019-05-07T05:24:33.084Z,8.60
2019-05-07T05:27:02.466Z,8.70
2019-05-07T05:29:32.294Z,8.60
2019-05-07T05:32:02.321Z,8.70
2019-05-07T05:34:30.248Z,8.80
2019-05-07T05:36:57.599Z,8.80
2019-05-07T05:39:25.218Z,9.10
2019-05-07T05:41:58.421Z,8.90
2019-05-07T05:44:28.946Z,9.00
2019-05-07T05:46:56.322Z,9.00
2019-05-07T05:49:23.892Z,9.20
2019-05-07T05:51:58.311Z,9.20
2019-05-07T05:54:31.919Z,8.90
2019-05-07T05:57:25.158Z,9.10
2019-05-07T06:00:22.193Z,9.20
2019-05-07T06:03:11.953Z,9.20
2019-05-07T06:06:08.826Z,9.30
2019-05-07T06:09:13.638Z,9.10
2019-05-07T06:11:52.479Z,9.20
2019-05-07T06:14:33.038Z,9.20
2019-05-07T06:17:32.119Z,9.50
2019-05-07T06:20:12.158Z,9.90
2019-05-07T06:22:52.872Z,10.70
2019-05-07T06:25:24.881Z,10.70
2019-05-07T06:27:53.361Z,10.90
2019-05-07T06:30:22.774Z,11.20
2019-05-07T06:32:52.268Z,11.90
2019-05-07T06:35:22.807Z,12.70
2019-05-07T06:37:53.688Z,13.40
2019-05-07T06:40:53.586Z,14.30
2019-05-07T06:43:32.556Z,15.10
2019-05-07T06:46:01.927Z,14.80
2019-05-07T06:48:41.389Z,14.50
2019-05-07T06:51:02.907Z,13.40
2019-05-07T06:53:34.421Z,13.00
2019-05-07T06:56:03.181Z,12.00
2019-05-07T06:58:52.675Z,11.80
2019-05-07T07:01:36.740Z,12.00
2019-05-07T07:04:13.018Z,12.10
2019-05-07T07:06:59.014Z,13.10
2019-05-07T07:09:42.489Z,13.40
2019-05-07T07:12:14.614Z,13.90
2019-05-07T07:14:42.926Z,14.20
2019-05-07T07:17:12.894Z,14.90
2019-05-07T07:19:42.821Z,14.60
2019-05-07T07:22:12.943Z,14.70
2019-05-07T07:24:42.403Z,14.50
2019-05-07T07:27:12.985Z,13.80
2019-05-07T07:29:46.402Z,13.60
2019-05-07T07:32:17.096Z,13.10
2019-05-07T07:34:48.649Z,13.00
2019-05-07T07:37:31.989Z,12.50
2019-05-07T07:40:22.428Z,12.70
2019-05-07T07:42:52.128Z,12.70
2019-05-07T07:45:22.835Z,12.90
2019-05-07T07:47:52.911Z,13.10
2019-05-07T07:50:25.668Z,12.70
2019-05-07T07:52:53.754Z,12.30
2019-05-07T07:55:29.183Z,11.90
2019-05-07T07:58:07.711Z,11.30
2019-05-07T08:00:45.019Z,11.40
2019-05-07T08:03:14.323Z,11.70
2019-05-07T08:05:47.798Z,11.80
2019-05-07T08:08:16.014Z,11.90
2019-05-07T08:10:44.208Z,12.30
2019-05-07T08:13:12.531Z,12.50
2019-05-07T08:15:42.858Z,12.40
2019-05-07T08:18:14.376Z,12.30
2019-05-07T08:20:43.135Z,12.00
2019-05-07T08:23:12.289Z,11.80
2019-05-07T08:25:46.634Z,11.90
2019-05-07T08:28:18.943Z,12.00
2019-05-07T08:30:54.080Z,12.20
2019-05-07T08:33:26.490Z,12.10
2019-05-07T08:36:12.056Z,12.10
2019-05-07T08:38:52.270Z,12.40
2019-05-07T08:41:23.367Z,12.60
2019-05-07T08:44:08.313Z,12.40
2019-05-07T08:46:59.431Z,12.40
2019-05-07T08:49:36.863Z,12.80
2019-05-07T08:52:11.809Z,12.90
2019-05-07T08:54:36.435Z,13.30
2019-05-07T08:57:03.658Z,13.40
2019-05-07T08:59:33.581Z,13.10
2019-05-07T09:02:02.996Z,12.80
2019-05-07T09:04:32.794Z,12.90
2019-05-07T09:06:59.927Z,12.90
2019-05-07T09:09:26.906Z,13.00
2019-05-07T09:11:54.651Z,12.40
2019-05-07T09:14:25.791Z,12.30
2019-05-07T09:16:55.041Z,12.70
2019-05-07T09:19:22.624Z,12.70
2019-05-07T09:21:49.812Z,13.20
2019-05-07T09:24:17.235Z,13.00
2019-05-07T09:27:06.902Z,13.00
2019-05-07T09:29:55.020Z,13.30
2019-05-07T09:32:38.651Z,13.70
2019-05-07T09:35:12.543Z,13.80
2019-05-07T09:37:42.099Z,13.80
2019-05-07T09:40:12.454Z,13.80
2019-05-07T09:42:42.201Z,13.30
2019-05-07T09:45:12.097Z,13.20
2019-05-07T09:47:42.949Z,13.50
2019-05-07T09:50:12.128Z,13.70
2019-05-07T09:52:42.539Z,14.40
2019-05-07T09:55:16.623Z,15.00
2019-05-07T09:57:42.586Z,15.00
2019-05-07T10:00:12.469Z,14.80
2019-05-07T10:02:42.520Z,14.70
2019-05-07T10:05:11.555Z,14.70
2019-05-07T10:07:45.127Z,14.60
2019-05-07T10:10:13.496Z,14.40
2019-05-07T10:12:47.567Z,14.40
2019-05-07T10:15:15.727Z,14.70
2019-05-07T10:17:54.843Z,14.60
2019-05-07T10:20:23.575Z,14.30
2019-05-07T10:22:54.780Z,14.00
2019-05-07T10:25:22.519Z,13.60
2019-05-07T10:27:53.018Z,13.60
2019-05-07T10:30:21.889Z,13.60
2019-05-07T10:32:52.489Z,13.30
2019-05-07T10:35:22.748Z,13.10
2019-05-07T10:37:52.776Z,13.30
2019-05-07T10:40:22.412Z,13.30
2019-05-07T10:42:51.907Z,13.70
2019-05-07T10:45:45.655Z,13.50
2019-05-07T10:48:47.572Z,13.30
2019-05-07T10:51:15.326Z,13.70
2019-05-07T10:53:51.782Z,13.70
2019-05-07T10:56:19.433Z,13.90
2019-05-07T10:58:46.822Z,13.90
2019-05-07T11:01:16.081Z,14.00
2019-05-07T11:03:43.668Z,14.20
2019-05-07T11:06:13.047Z,14.50
2019-05-07T11:08:42.456Z,14.70
2019-05-07T11:11:10.286Z,14.20
2019-05-07T11:13:37.595Z,14.70
2019-05-07T11:16:08.773Z,14.80
2019-05-07T11:18:44.573Z,15.20
2019-05-07T11:21:12.259Z,15.00
2019-05-07T11:23:41.767Z,14.50
2019-05-07T11:26:11.629Z,14.30
2019-05-07T11:28:42.953Z,14.00
2019-05-07T11:31:12.266Z,13.90
2019-05-07T11:33:41.669Z,14.00
2019-05-07T11:36:09.363Z,14.00
2019-05-07T11:38:36.850Z,13.70
2019-05-07T11:41:04.018Z,13.40
2019-05-07T11:43:54.065Z,13.00
2019-05-07T11:46:32.741Z,12.60
2019-05-07T11:49:06.275Z,12.60
2019-05-07T11:51:57.231Z,12.50
2019-05-07T11:54:24.662Z,12.90
2019-05-07T11:56:55.246Z,13.10
2019-05-07T11:59:22.039Z,13.20
2019-05-07T12:02:01.846Z,13.30
2019-05-07T12:04:28.806Z,13.30
2019-05-07T12:06:56.019Z,13.10
2019-05-07T12:09:23.526Z,13.00
2019-05-07T12:11:57.041Z,13.30
2019-05-07T12:14:30.878Z,13.20
2019-05-07T12:16:57.607Z,13.40
2019-05-07T12:19:25.040Z,13.60
2019-05-07T12:21:52.755Z,13.40
2019-05-07T12:24:22.373Z,13.20
2019-05-07T12:26:52.102Z,13.00
2019-05-07T12:29:19.214Z,13.00
2019-05-07T12:32:04.768Z,13.00
2019-05-07T12:34:43.656Z,13.10
2019-05-07T12:37:12.306Z,12.80
2019-05-07T12:39:45.732Z,12.70
2019-05-07T12:42:13.405Z,12.60
2019-05-07T12:44:42.535Z,12.40
2019-05-07T12:47:12.030Z,12.20
2019-05-07T12:49:42.731Z,12.20
2019-05-07T12:52:25.678Z,12.00
2019-05-07T12:55:08.206Z,11.90
2019-05-07T12:57:36.774Z,11.90
2019-05-07T13:00:24.967Z,12.00
2019-05-07T13:03:26.398Z,12.30
2019-05-07T13:05:56.549Z,12.50
2019-05-07T13:08:42.671Z,12.90
2019-05-07T13:11:13.091Z,12.80
2019-05-07T13:13:42.226Z,12.80
2019-05-07T13:16:09.819Z,13.10
2019-05-07T13:18:37.252Z,13.20
2019-05-07T13:21:06.895Z,13.50
2019-05-07T13:23:34.209Z,14.00
2019-05-07T13:26:02.667Z,14.10
2019-05-07T13:28:30.756Z,14.50
2019-05-07T13:30:58.425Z,14.60
2019-05-07T13:33:34.658Z,14.30
2019-05-07T13:36:02.470Z,14.40
2019-05-07T13:38:42.670Z,14.70
2019-05-07T13:41:22.779Z,14.90
2019-05-07T13:44:16.524Z,15.10
2019-05-07T13:46:45.890Z,15.10
2019-05-07T13:49:14.599Z,14.90
2019-05-07T13:51:43.625Z,14.90
2019-05-07T13:54:17.542Z,15.40
2019-05-07T13:56:45.901Z,15.60
2019-05-07T13:59:16.467Z,15.40
2019-05-07T14:02:04.966Z,15.30
2019-05-07T14:04:32.686Z,15.40
2019-05-07T14:07:02.019Z,15.00
2019-05-07T14:09:32.473Z,14.70
2019-05-07T14:12:02.114Z,14.70
2019-05-07T14:14:34.206Z,14.70
2019-05-07T14:17:02.376Z,14.60
2019-05-07T14:19:32.691Z,14.80
2019-05-07T14:22:14.464Z,14.50
2019-05-07T14:24:32.799Z,14.10
2019-05-07T14:27:02.054Z,14.00
2019-05-07T14:29:32.084Z,13.80
2019-05-07T14:32:22.089Z,13.70
2019-05-07T14:35:12.873Z,13.40
2019-05-07T14:37:44.587Z,13.40
2019-05-07T14:40:13.101Z,13.40
2019-05-07T14:42:48.589Z,13.60
2019-05-07T14:45:16.890Z,13.90
2019-05-07T14:47:45.302Z,13.80
2019-05-07T14:50:13.496Z,14.00
2019-05-07T14:52:43.259Z,14.10
2019-05-07T14:55:12.787Z,14.00
2019-05-07T14:57:43.306Z,14.20
2019-05-07T15:00:12.374Z,13.80
2019-05-07T15:02:42.188Z,14.10
2019-05-07T15:05:12.056Z,14.30
2019-05-07T15:07:44.784Z,14.10
2019-05-07T15:10:13.215Z,14.10
2019-05-07T15:12:42.686Z,14.60
2019-05-07T15:15:12.614Z,14.50
2019-05-07T15:18:01.176Z,14.60
2019-05-07T15:20:33.828Z,14.60
2019-05-07T15:23:18.677Z,14.30
2019-05-07T15:25:47.387Z,14.20
2019-05-07T15:28:14.539Z,14.20
2019-05-07T15:31:02.827Z,14.00
2019-05-07T15:33:32.370Z,13.70
2019-05-07T15:36:02.759Z,13.90
2019-05-07T15:38:32.440Z,13.70
2019-05-07T15:41:02.694Z,13.60
2019-05-07T15:43:32.344Z,13.50
2019-05-07T15:46:02.109Z,13.50
2019-05-07T15:48:32.489Z,13.60
2019-05-07T15:51:02.150Z,13.40
2019-05-07T15:53:42.830Z,13.50
2019-05-07T15:56:12.487Z,13.60
2019-05-07T15:58:45.651Z,13.60
2019-05-07T16:01:13.834Z,13.50
2019-05-07T16:03:43.272Z,13.20
2019-05-07T16:06:12.626Z,13.20
2019-05-07T16:08:50.645Z,13.20
2019-05-07T16:11:19.016Z,13.10
2019-05-07T16:14:12.633Z,13.10
2019-05-07T16:16:43.046Z,13.20
2019-05-07T16:19:18.653Z,13.20
2019-05-07T16:21:46.737Z,13.30
2019-05-07T16:24:14.967Z,13.30
2019-05-07T16:26:44.387Z,13.30
2019-05-07T16:29:13.507Z,13.30
2019-05-07T16:31:43.873Z,13.50
2019-05-07T16:34:12.976Z,13.60
2019-05-07T16:36:41.965Z,13.50
2019-05-07T16:39:12.035Z,13.50
2019-05-07T16:41:42.272Z,13.50
2019-05-07T16:44:12.317Z,13.50
2019-05-07T16:46:42.167Z,13.40
2019-05-07T16:49:12.063Z,13.40
2019-05-07T16:51:41.927Z,13.40
2019-05-07T16:54:12.152Z,13.20
2019-05-07T16:57:04.537Z,13.30
2019-05-07T16:59:34.566Z,13.40
2019-05-07T17:02:08.336Z,13.40
2019-05-07T17:04:38.262Z,13.50
2019-05-07T17:07:08.553Z,13.50
2019-05-07T17:09:37.061Z,13.50
2019-05-07T17:12:07.890Z,13.60
2019-05-07T17:14:35.918Z,13.50
2019-05-07T17:17:05.284Z,13.50
2019-05-07T17:19:34.202Z,13.60
2019-05-07T17:22:06.334Z,13.60
2019-05-07T17:24:33.351Z,13.40
2019-05-07T17:27:02.350Z,13.20
2019-05-07T17:29:32.118Z,13.30
2019-05-07T17:32:01.668Z,13.10
2019-05-07T17:34:30.416Z,13.20
2019-05-07T17:36:58.873Z,13.40
2019-05-07T17:39:27.303Z,13.20
2019-05-07T17:41:55.921Z,13.40
2019-05-07T17:44:24.395Z,13.20
2019-05-07T17:46:53.638Z,13.20
2019-05-07T17:49:21.933Z,13.10
2019-05-07T17:51:52.462Z,13.30
2019-05-07T17:54:22.487Z,13.40
2019-05-07T17:56:52.698Z,13.40
2019-05-07T17:59:21.278Z,13.40
2019-05-07T18:02:09.206Z,13.60
2019-05-07T18:04:48.517Z,13.50
2019-05-07T18:07:11.779Z,13.50
2019-05-07T18:09:42.241Z,13.40
2019-05-07T18:12:12.047Z,13.20
2019-05-07T18:14:42.374Z,13.30
2019-05-07T18:17:28.042Z,13.10
2019-05-07T18:19:56.377Z,13.10
2019-05-07T18:22:24.367Z,13.10
2019-05-07T18:24:52.509Z,13.30
2019-05-07T18:27:23.214Z,13.30
2019-05-07T18:29:52.187Z,13.40
2019-05-07T18:32:22.085Z,13.30
2019-05-07T18:34:51.938Z,13.30
2019-05-07T18:37:20.164Z,13.30
2019-05-07T18:39:48.679Z,13.20
2019-05-07T18:42:17.209Z,13.00
2019-05-07T18:44:45.490Z,13.10
2019-05-07T18:47:17.919Z,13.20
2019-05-07T18:49:44.909Z,13.10
2019-05-07T18:52:13.046Z,13.20
2019-05-07T18:54:42.782Z,13.10
2019-05-07T18:57:15.855Z,13.20
2019-05-07T18:59:43.388Z,13.10
2019-05-07T19:02:12.174Z,13.10
2019-05-07T19:04:42.249Z,13.10
2019-05-07T19:07:10.582Z,13.00
2019-05-07T19:09:38.635Z,13.00
2019-05-07T19:12:08.749Z,12.90
2019-05-07T19:14:37.042Z,12.90
2019-05-07T19:17:05.643Z,12.70
2019-05-07T19:19:34.368Z,12.80
2019-05-07T19:22:02.566Z,12.80
2019-05-07T19:24:42.306Z,12.70
2019-05-07T19:27:02.173Z,12.50
2019-05-07T19:29:32.557Z,12.40
2019-05-07T19:32:03.030Z,12.40
2019-05-07T19:34:32.450Z,12.40
2019-05-07T19:37:02.552Z,12.30
2019-05-07T19:39:32.448Z,12.30
2019-05-07T19:42:02.559Z,12.20
2019-05-07T19:44:31.427Z,12.10
2019-05-07T19:47:01.893Z,12.10
2019-05-07T19:49:28.935Z,11.90
2019-05-07T19:51:56.417Z,11.90
2019-05-07T19:54:24.741Z,11.70
2019-05-07T19:56:53.079Z,11.60
2019-05-07T19:59:22.275Z,11.50
2019-05-07T20:01:54.947Z,11.40
2019-05-07T20:04:23.419Z,11.40
2019-05-07T20:06:56.079Z,11.30
2019-05-07T20:09:29.117Z,11.20
2019-05-07T20:11:57.839Z,11.20
2019-05-07T20:14:27.810Z,11.10
2019-05-07T20:16:55.996Z,11.00
2019-05-07T20:19:28.664Z,10.70
2019-05-07T20:21:58.500Z,10.80
2019-05-07T20:24:26.867Z,10.70
2019-05-07T20:26:54.927Z,10.70
2019-05-07T20:29:23.816Z,10.70
2019-05-07T20:31:59.598Z,10.70
2019-05-07T20:34:28.232Z,10.60
2019-05-07T20:36:56.400Z,10.50
2019-05-07T20:39:25.243Z,10.40
2019-05-07T20:41:53.436Z,10.40
2019-05-07T20:44:21.895Z,10.30
2019-05-07T20:46:50.575Z,10.30
2019-05-07T20:49:19.120Z,10.20
2019-05-07T20:51:47.076Z,10.20
2019-05-07T20:54:28.715Z,10.10
2019-05-07T20:57:05.592Z,10.10
2019-05-07T20:59:33.810Z,10.10
2019-05-07T21:02:02.505Z,10.10
2019-05-07T21:04:35.769Z,10.00
2019-05-07T21:07:04.024Z,10.00
2019-05-07T21:09:33.015Z,10.00
2019-05-07T21:12:01.205Z,10.00
2019-05-07T21:14:29.708Z,9.90
2019-05-07T21:17:16.364Z,9.90
2019-05-07T21:19:43.001Z,9.80
2019-05-07T21:22:13.025Z,9.70
2019-05-07T21:24:42.243Z,9.50
2019-05-07T21:27:12.231Z,9.50
2019-05-07T21:29:42.275Z,9.60
2019-05-07T21:32:12.437Z,9.70
2019-05-07T21:34:42.159Z,9.80
2019-05-07T21:37:12.564Z,9.80
2019-05-07T21:39:42.393Z,9.70
2019-05-07T21:42:13.966Z,9.60
2019-05-07T21:44:42.923Z,9.80
2019-05-07T21:47:12.602Z,9.60
2019-05-07T21:49:43.766Z,9.50
2019-05-07T21:52:12.932Z,9.50
2019-05-07T21:54:54.090Z,9.60
2019-05-07T21:57:38.690Z,9.50
2019-05-07T22:00:23.470Z,9.40
2019-05-07T22:02:52.953Z,9.30
2019-05-07T22:05:22.423Z,9.30
2019-05-07T22:07:54.174Z,9.30
2019-05-07T22:10:22.246Z,9.30
2019-05-07T22:12:52.042Z,9.20
2019-05-07T22:15:22.578Z,9.20
2019-05-07T22:17:52.050Z,9.20
2019-05-07T22:20:29.375Z,9.10
2019-05-07T22:22:57.791Z,9.00
2019-05-07T22:25:26.239Z,9.10
2019-05-07T22:27:54.579Z,9.20
2019-05-07T22:30:32.394Z,9.30
2019-05-07T22:33:09.334Z,9.30
2019-05-07T22:35:39.799Z,9.20
2019-05-07T22:38:08.363Z,9.30
2019-05-07T22:40:37.423Z,9.30
2019-05-07T22:43:05.933Z,9.30
2019-05-07T22:45:34.647Z,9.30
2019-05-07T22:48:03.110Z,9.50
2019-05-07T22:50:33.195Z,9.50
2019-05-07T22:53:02.140Z,9.50
2019-05-07T22:55:32.537Z,9.50
2019-05-07T22:58:09.153Z,9.50
2019-05-07T23:00:50.591Z,9.60
2019-05-07T23:03:18.899Z,9.60
2019-05-07T23:05:47.106Z,9.70
2019-05-07T23:08:15.349Z,9.90
2019-05-07T23:10:44.583Z,9.90
2019-05-07T23:13:13.071Z,9.80
2019-05-07T23:15:42.921Z,9.80
2019-05-07T23:18:13.030Z,9.60
2019-05-07T23:20:42.708Z,9.70
2019-05-07T23:23:13.880Z,9.70
2019-05-07T23:25:43.126Z,9.70
2019-05-07T23:28:14.055Z,9.90
2019-05-07T23:30:44.343Z,10.10
2019-05-07T23:33:12.642Z,10.10
2019-05-07T23:35:42.169Z,10.10
2019-05-07T23:38:12.236Z,10.30
2019-05-07T23:40:52.580Z,10.30
2019-05-07T23:43:22.632Z,10.30
2019-05-07T23:45:52.607Z,10.40
2019-05-07T23:48:22.846Z,10.40
2019-05-07T23:50:52.504Z,10.40
2019-05-07T23:53:22.464Z,10.40
2019-05-07T23:55:52.007Z,10.20
2019-05-07T23:58:20.200Z,10.20
